sensor_id;sensor_type;location;lat;lon;timestamp;pressure;altitude;pressure_sealevel;temperature;humidity
76994;BME280;66749;47.406;18.822;2023-09-12T00:00:26;100153.91;;;17.23;77.32
76994;BME280;66749;47.406;18.822;2023-09-12T00:00:58;100160.16;;;17.22;77.34
76994;BME280;66749;47.406;18.822;2023-09-12T00:01:36;100155.88;;;17.20;77.54
76994;BME280;66749;47.406;18.822;2023-09-12T00:02:08;100156.84;;;17.19;77.41
76994;BME280;66749;47.406;18.822;2023-09-12T00:02:41;100156.69;;;17.21;77.37
76994;BME280;66749;47.406;18.822;2023-09-12T00:03:13;100158.50;;;17.20;77.43
76994;BME280;66749;47.406;18.822;2023-09-12T00:03:45;100158.38;;;17.22;77.08
76994;BME280;66749;47.406;18.822;2023-09-12T00:04:17;100161.13;;;17.20;77.57
76994;BME280;66749;47.406;18.822;2023-09-12T00:04:50;100164.59;;;17.21;77.30
76994;BME280;66749;47.406;18.822;2023-09-12T00:05:22;100162.81;;;17.22;77.32
76994;BME280;66749;47.406;18.822;2023-09-12T00:05:56;100157.53;;;17.22;77.48
76994;BME280;66749;47.406;18.822;2023-09-12T00:06:28;100161.28;;;17.19;77.29
76994;BME280;66749;47.406;18.822;2023-09-12T00:07:00;100163.78;;;17.20;77.27
76994;BME280;66749;47.406;18.822;2023-09-12T00:07:32;100157.66;;;17.20;76.99
76994;BME280;66749;47.406;18.822;2023-09-12T00:08:04;100158.50;;;17.20;77.22
76994;BME280;66749;47.406;18.822;2023-09-12T00:08:36;100162.81;;;17.22;77.61
76994;BME280;66749;47.406;18.822;2023-09-12T00:09:08;100163.78;;;17.20;77.37
76994;BME280;66749;47.406;18.822;2023-09-12T00:09:40;100161.28;;;17.19;77.15
76994;BME280;66749;47.406;18.822;2023-09-12T00:10:12;100163.78;;;17.20;77.24
76994;BME280;66749;47.406;18.822;2023-09-12T00:10:44;100162.13;;;17.19;76.95
76994;BME280;66749;47.406;18.822;2023-09-12T00:11:16;100156.28;;;17.16;77.08
76994;BME280;66749;47.406;18.822;2023-09-12T00:11:48;100160.97;;;17.12;77.49
76994;BME280;66749;47.406;18.822;2023-09-12T00:12:22;100165.56;;;17.10;77.74
76994;BME280;66749;47.406;18.822;2023-09-12T00:12:55;100152.63;;;17.07;77.76
76994;BME280;66749;47.406;18.822;2023-09-12T00:13:27;100156.22;;;17.06;77.75
76994;BME280;66749;47.406;18.822;2023-09-12T00:13:59;100162.34;;;17.07;77.73
76994;BME280;66749;47.406;18.822;2023-09-12T00:14:31;100161.50;;;17.06;77.43
76994;BME280;66749;47.406;18.822;2023-09-12T00:15:03;100167.50;;;17.08;77.87
76994;BME280;66749;47.406;18.822;2023-09-12T00:15:36;100160.44;;;17.09;77.91
76994;BME280;66749;47.406;18.822;2023-09-12T00:16:08;100161.25;;;17.09;77.35
76994;BME280;66749;47.406;18.822;2023-09-12T00:16:42;100162.91;;;17.10;77.95
76994;BME280;66749;47.406;18.822;2023-09-12T00:17:14;100158.63;;;17.09;78.05
76994;BME280;66749;47.406;18.822;2023-09-12T00:17:46;100155.16;;;17.09;77.84
76994;BME280;66749;47.406;18.822;2023-09-12T00:18:20;100157.78;;;17.09;78.25
76994;BME280;66749;47.406;18.822;2023-09-12T00:18:52;100161.25;;;17.09;77.65
76994;BME280;66749;47.406;18.822;2023-09-12T00:19:24;100156.97;;;17.08;78.17
76994;BME280;66749;47.406;18.822;2023-09-12T00:19:56;100152.63;;;17.07;78.02
76994;BME280;66749;47.406;18.822;2023-09-12T00:20:27;100155.16;;;17.09;78.01
76994;BME280;66749;47.406;18.822;2023-09-12T00:21:00;100151.78;;;17.07;77.88
76994;BME280;66749;47.406;18.822;2023-09-12T00:21:32;100150.66;;;17.00;77.66
76994;BME280;66749;47.406;18.822;2023-09-12T00:22:04;100150.09;;;16.96;77.80
76994;BME280;66749;47.406;18.822;2023-09-12T00:22:36;100150.09;;;16.96;78.24
76994;BME280;66749;47.406;18.822;2023-09-12T00:23:08;100149.97;;;16.98;78.17
76994;BME280;66749;47.406;18.822;2023-09-12T00:23:40;100146.50;;;16.97;77.75
76994;BME280;66749;47.406;18.822;2023-09-12T00:24:12;100143.72;;;16.99;77.76
76994;BME280;66749;47.406;18.822;2023-09-12T00:24:43;100154.97;;;17.01;77.75
76994;BME280;66749;47.406;18.822;2023-09-12T00:25:16;100151.47;;;17.00;77.53
76994;BME280;66749;47.406;18.822;2023-09-12T00:25:49;100150.53;;;17.01;77.86
76994;BME280;66749;47.406;18.822;2023-09-12T00:26:21;100153.19;;;17.01;77.65
76994;BME280;66749;47.406;18.822;2023-09-12T00:26:53;100155.09;;;16.99;78.07
76994;BME280;66749;47.406;18.822;2023-09-12T00:27:25;100147.19;;;16.99;77.98
76994;BME280;66749;47.406;18.822;2023-09-12T00:27:57;100148.84;;;17.00;78.47
76994;BME280;66749;47.406;18.822;2023-09-12T00:28:29;100146.22;;;17.00;78.61
76994;BME280;66749;47.406;18.822;2023-09-12T00:29:00;100142.88;;;16.98;78.48
76994;BME280;66749;47.406;18.822;2023-09-12T00:29:32;100146.34;;;16.99;78.23
76994;BME280;66749;47.406;18.822;2023-09-12T00:30:05;100148.16;;;16.98;78.01
76994;BME280;66749;47.406;18.822;2023-09-12T00:30:37;100143.84;;;16.97;78.05
76994;BME280;66749;47.406;18.822;2023-09-12T00:31:09;100143.84;;;16.97;78.16
76994;BME280;66749;47.406;18.822;2023-09-12T00:31:41;100142.19;;;16.96;78.31
76994;BME280;66749;47.406;18.822;2023-09-12T00:32:13;100143.03;;;16.97;78.26
76994;BME280;66749;47.406;18.822;2023-09-12T00:32:46;100142.19;;;16.96;78.21
76994;BME280;66749;47.406;18.822;2023-09-12T00:33:18;100144.53;;;16.99;77.75
76994;BME280;66749;47.406;18.822;2023-09-12T00:33:50;100141.91;;;16.99;77.87
76994;BME280;66749;47.406;18.822;2023-09-12T00:34:22;100144.44;;;17.01;78.13
76994;BME280;66749;47.406;18.822;2023-09-12T00:34:54;100151.47;;;17.00;77.92
76994;BME280;66749;47.406;18.822;2023-09-12T00:35:26;100147.91;;;17.01;78.25
76994;BME280;66749;47.406;18.822;2023-09-12T00:35:58;100147.06;;;17.01;78.11
76994;BME280;66749;47.406;18.822;2023-09-12T00:36:30;100146.34;;;16.99;78.07
76994;BME280;66749;47.406;18.822;2023-09-12T00:37:02;100149.81;;;16.99;78.02
76994;BME280;66749;47.406;18.822;2023-09-12T00:37:33;100151.47;;;17.00;77.80
76994;BME280;66749;47.406;18.822;2023-09-12T00:38:05;100143.72;;;16.99;77.89
76994;BME280;66749;47.406;18.822;2023-09-12T00:38:40;100155.09;;;16.99;77.98
76994;BME280;66749;47.406;18.822;2023-09-12T00:39:12;100153.28;;;17.00;77.76
76994;BME280;66749;47.406;18.822;2023-09-12T00:39:44;100154.25;;;16.99;78.07
76994;BME280;66749;47.406;18.822;2023-09-12T00:40:16;100156.91;;;16.99;77.97
76994;BME280;66749;47.406;18.822;2023-09-12T00:40:48;100157.03;;;16.97;77.64
76994;BME280;66749;47.406;18.822;2023-09-12T00:41:20;100155.38;;;16.96;77.84
76994;BME280;66749;47.406;18.822;2023-09-12T00:41:52;100153.72;;;16.95;77.87
76994;BME280;66749;47.406;18.822;2023-09-12T00:42:26;100152.03;;;16.94;77.85
76994;BME280;66749;47.406;18.822;2023-09-12T00:42:58;100154.69;;;16.94;77.93
76994;BME280;66749;47.406;18.822;2023-09-12T00:43:30;100157.31;;;16.94;77.52
76994;BME280;66749;47.406;18.822;2023-09-12T00:44:02;100146.03;;;16.92;78.14
76994;BME280;66749;47.406;18.822;2023-09-12T00:44:34;100149.94;;;16.88;78.11
76994;BME280;66749;47.406;18.822;2023-09-12T00:45:06;100146.84;;;16.83;77.71
76994;BME280;66749;47.406;18.822;2023-09-12T00:45:38;100151.16;;;16.84;78.24
76994;BME280;66749;47.406;18.822;2023-09-12T00:46:13;100148.41;;;16.85;77.83
76994;BME280;66749;47.406;18.822;2023-09-12T00:46:51;100144.06;;;16.84;78.09
76994;BME280;66749;47.406;18.822;2023-09-12T00:47:25;100146.59;;;16.86;77.77
76994;BME280;66749;47.406;18.822;2023-09-12T00:48:00;100146.72;;;16.84;77.95
76994;BME280;66749;47.406;18.822;2023-09-12T00:48:34;100146.84;;;16.83;77.53
76994;BME280;66749;47.406;18.822;2023-09-12T00:49:08;100143.50;;;16.81;77.78
76994;BME280;66749;47.406;18.822;2023-09-12T00:49:40;100153.09;;;16.82;77.45
76994;BME280;66749;47.406;18.822;2023-09-12T00:50:13;100152.25;;;16.81;77.85
76994;BME280;66749;47.406;18.822;2023-09-12T00:50:47;100145.31;;;16.80;77.66
76994;BME280;66749;47.406;18.822;2023-09-12T00:51:21;100148.94;;;16.79;77.80
76994;BME280;66749;47.406;18.822;2023-09-12T00:51:56;100145.47;;;16.79;77.88
76994;BME280;66749;47.406;18.822;2023-09-12T00:52:29;100153.38;;;16.79;77.94
76994;BME280;66749;47.406;18.822;2023-09-12T00:53:03;100147.25;;;16.78;77.50
76994;BME280;66749;47.406;18.822;2023-09-12T00:53:35;100151.69;;;16.78;77.86
76994;BME280;66749;47.406;18.822;2023-09-12T00:54:07;100150.00;;;16.77;77.87
76994;BME280;66749;47.406;18.822;2023-09-12T00:54:40;100152.63;;;16.77;77.58
76994;BME280;66749;47.406;18.822;2023-09-12T00:55:12;100150.97;;;16.76;78.08
76994;BME280;66749;47.406;18.822;2023-09-12T00:55:48;100156.25;;;16.76;77.51
76994;BME280;66749;47.406;18.822;2023-09-12T00:56:22;100151.81;;;16.76;77.46
76994;BME280;66749;47.406;18.822;2023-09-12T00:56:53;100146.66;;;16.75;77.37
76994;BME280;66749;47.406;18.822;2023-09-12T00:57:26;100148.47;;;16.74;77.21
76994;BME280;66749;47.406;18.822;2023-09-12T00:57:58;100145.84;;;16.74;77.63
76994;BME280;66749;47.406;18.822;2023-09-12T00:58:30;100143.34;;;16.73;77.53
76994;BME280;66749;47.406;18.822;2023-09-12T00:59:04;100147.66;;;16.74;77.46
76994;BME280;66749;47.406;18.822;2023-09-12T00:59:36;100157.63;;;16.70;77.86
76994;BME280;66749;47.406;18.822;2023-09-12T01:00:11;100153.06;;;16.72;77.57
76994;BME280;66749;47.406;18.822;2023-09-12T01:00:44;100156.50;;;16.73;77.68
76994;BME280;66749;47.406;18.822;2023-09-12T01:01:17;100152.22;;;16.72;77.78
76994;BME280;66749;47.406;18.822;2023-09-12T01:01:50;100149.78;;;16.69;77.83
76994;BME280;66749;47.406;18.822;2023-09-12T01:02:22;100151.50;;;16.70;77.89
76994;BME280;66749;47.406;18.822;2023-09-12T01:02:56;100155.81;;;16.71;77.44
76994;BME280;66749;47.406;18.822;2023-09-12T01:03:28;100151.59;;;16.68;77.70
76994;BME280;66749;47.406;18.822;2023-09-12T01:04:01;100153.41;;;16.68;77.41
76994;BME280;66749;47.406;18.822;2023-09-12T01:04:36;100151.72;;;16.67;77.83
76994;BME280;66749;47.406;18.822;2023-09-12T01:05:10;100153.69;;;16.64;77.61
76994;BME280;66749;47.406;18.822;2023-09-12T01:05:43;100152.69;;;16.65;77.94
76994;BME280;66749;47.406;18.822;2023-09-12T01:06:19;100157.13;;;16.65;77.58
76994;BME280;66749;47.406;18.822;2023-09-12T01:06:52;100150.44;;;16.61;78.02
76994;BME280;66749;47.406;18.822;2023-09-12T01:07:24;100142.81;;;16.58;78.32
76994;BME280;66749;47.406;18.822;2023-09-12T01:07:56;100150.72;;;16.58;77.77
76994;BME280;66749;47.406;18.822;2023-09-12T01:08:28;100145.44;;;16.58;77.93
76994;BME280;66749;47.406;18.822;2023-09-12T01:09:00;100149.88;;;16.57;78.23
76994;BME280;66749;47.406;18.822;2023-09-12T01:09:33;100141.97;;;16.57;78.21
76994;BME280;66749;47.406;18.822;2023-09-12T01:10:06;100142.94;;;16.56;78.07
76994;BME280;66749;47.406;18.822;2023-09-12T01:10:38;100144.75;;;16.56;77.74
76994;BME280;66749;47.406;18.822;2023-09-12T01:11:12;100140.44;;;16.55;77.81
76994;BME280;66749;47.406;18.822;2023-09-12T01:11:44;100137.09;;;16.53;77.70
76994;BME280;66749;47.406;18.822;2023-09-12T01:12:16;100142.22;;;16.54;77.75
76994;BME280;66749;47.406;18.822;2023-09-12T01:12:50;100144.03;;;16.54;77.88
76994;BME280;66749;47.406;18.822;2023-09-12T01:13:23;100146.81;;;16.52;77.86
76994;BME280;66749;47.406;18.822;2023-09-12T01:13:55;100148.59;;;16.52;78.08
76994;BME280;66749;47.406;18.822;2023-09-12T01:14:26;100150.41;;;16.51;77.96
76994;BME280;66749;47.406;18.822;2023-09-12T01:14:59;100146.09;;;16.50;77.96
76994;BME280;66749;47.406;18.822;2023-09-12T01:15:31;100149.56;;;16.51;78.02
76994;BME280;66749;47.406;18.822;2023-09-12T01:16:03;100143.47;;;16.50;77.74
76994;BME280;66749;47.406;18.822;2023-09-12T01:16:34;100141.81;;;16.49;78.31
76994;BME280;66749;47.406;18.822;2023-09-12T01:17:06;100151.38;;;16.50;78.10
76994;BME280;66749;47.406;18.822;2023-09-12T01:17:42;100148.88;;;16.49;78.02
76994;BME280;66749;47.406;18.822;2023-09-12T01:18:15;100150.69;;;16.48;78.21
76994;BME280;66749;47.406;18.822;2023-09-12T01:18:47;100141.94;;;16.48;78.23
76994;BME280;66749;47.406;18.822;2023-09-12T01:19:19;100144.56;;;16.48;77.73
76994;BME280;66749;47.406;18.822;2023-09-12T01:19:51;100141.94;;;16.48;77.84
76994;BME280;66749;47.406;18.822;2023-09-12T01:20:33;100144.69;;;16.46;77.94
76994;BME280;66749;47.406;18.822;2023-09-12T01:23:58;100150.22;;;16.43;77.67
76994;BME280;66749;47.406;18.822;2023-09-12T01:25:11;100155.50;;;16.43;78.01
76994;BME280;66749;47.406;18.822;2023-09-12T01:26:49;100152.03;;;16.43;78.24
76994;BME280;66749;47.406;18.822;2023-09-12T01:27:30;100149.38;;;16.43;77.92
76994;BME280;66749;47.406;18.822;2023-09-12T01:28:06;100151.19;;;16.42;78.23
76994;BME280;66749;47.406;18.822;2023-09-12T01:28:40;100155.50;;;16.43;78.36
76994;BME280;66749;47.406;18.822;2023-09-12T01:29:18;100146.88;;;16.41;78.41
76994;BME280;66749;47.406;18.822;2023-09-12T01:29:56;100150.34;;;16.42;78.22
76994;BME280;66749;47.406;18.822;2023-09-12T01:30:31;100153.97;;;16.41;77.94
76994;BME280;66749;47.406;18.822;2023-09-12T01:31:05;100147.00;;;16.40;78.03
76994;BME280;66749;47.406;18.822;2023-09-12T01:31:37;100144.25;;;16.41;78.28
76994;BME280;66749;47.406;18.822;2023-09-12T01:32:13;100150.50;;;16.40;78.07
76994;BME280;66749;47.406;18.822;2023-09-12T01:32:47;100148.69;;;16.41;78.31
76994;BME280;66749;47.406;18.822;2023-09-12T01:33:19;100143.41;;;16.41;77.87
76994;BME280;66749;47.406;18.822;2023-09-12T01:33:56;100146.28;;;16.37;78.03
76994;BME280;66749;47.406;18.822;2023-09-12T01:34:28;100149.19;;;16.34;78.29
76994;BME280;66749;47.406;18.822;2023-09-12T01:35:00;100151.84;;;16.34;78.34
76994;BME280;66749;47.406;18.822;2023-09-12T01:35:35;100146.69;;;16.33;78.16
76994;BME280;66749;47.406;18.822;2023-09-12T01:36:09;100149.34;;;16.33;78.40
76994;BME280;66749;47.406;18.822;2023-09-12T01:36:41;100147.63;;;16.32;77.96
76994;BME280;66749;47.406;18.822;2023-09-12T01:37:14;100148.38;;;16.34;77.91
76994;BME280;66749;47.406;18.822;2023-09-12T01:37:46;100149.34;;;16.33;77.91
76994;BME280;66749;47.406;18.822;2023-09-12T01:38:18;100147.63;;;16.32;78.52
76994;BME280;66749;47.406;18.822;2023-09-12T01:38:50;100153.63;;;16.34;78.27
76994;BME280;66749;47.406;18.822;2023-09-12T01:39:22;100151.13;;;16.32;78.10
76994;BME280;66749;47.406;18.822;2023-09-12T01:39:54;100149.34;;;16.33;77.96
76994;BME280;66749;47.406;18.822;2023-09-12T01:40:49;100145.00;;;16.32;78.05
76994;BME280;66749;47.406;18.822;2023-09-12T01:41:22;100147.78;;;16.30;78.63
76994;BME280;66749;47.406;18.822;2023-09-12T01:41:54;100148.59;;;16.31;78.24
76994;BME280;66749;47.406;18.822;2023-09-12T01:42:36;100146.09;;;16.29;78.51
76994;BME280;66749;47.406;18.822;2023-09-12T01:43:08;100153.03;;;16.30;78.83
76994;BME280;66749;47.406;18.822;2023-09-12T01:43:42;100151.25;;;16.31;78.28
76994;BME280;66749;47.406;18.822;2023-09-12T01:44:15;100158.31;;;16.30;78.30
76994;BME280;66749;47.406;18.822;2023-09-12T01:44:56;100149.56;;;16.30;78.08
76994;BME280;66749;47.406;18.822;2023-09-12T01:45:29;100152.34;;;16.28;78.06
76994;BME280;66749;47.406;18.822;2023-09-12T01:46:01;100151.50;;;16.28;78.13
76994;BME280;66749;47.406;18.822;2023-09-12T01:46:34;100152.47;;;16.27;78.38
76994;BME280;66749;47.406;18.822;2023-09-12T01:47:08;100151.63;;;16.26;78.56
76994;BME280;66749;47.406;18.822;2023-09-12T01:47:42;100156.06;;;16.26;78.29
76994;BME280;66749;47.406;18.822;2023-09-12T01:48:19;100158.72;;;16.26;78.64
76994;BME280;66749;47.406;18.822;2023-09-12T01:48:54;100151.88;;;16.23;78.63
76994;BME280;66749;47.406;18.822;2023-09-12T01:49:28;100156.31;;;16.23;78.45
76994;BME280;66749;47.406;18.822;2023-09-12T01:50:01;100152.84;;;16.22;78.29
76994;BME280;66749;47.406;18.822;2023-09-12T01:50:35;100154.66;;;16.22;78.17
76994;BME280;66749;47.406;18.822;2023-09-12T01:51:09;100153.81;;;16.21;78.15
76994;BME280;66749;47.406;18.822;2023-09-12T01:51:41;100155.63;;;16.21;78.34
76994;BME280;66749;47.406;18.822;2023-09-12T01:52:14;100158.25;;;16.21;78.16
76994;BME280;66749;47.406;18.822;2023-09-12T01:52:47;100157.53;;;16.19;78.63
76994;BME280;66749;47.406;18.822;2023-09-12T01:53:19;100151.56;;;16.17;78.26
76994;BME280;66749;47.406;18.822;2023-09-12T01:53:53;100151.81;;;16.14;78.80
76994;BME280;66749;47.406;18.822;2023-09-12T01:54:27;100158.88;;;16.13;78.85
76994;BME280;66749;47.406;18.822;2023-09-12T01:54:59;100164.03;;;16.15;78.71
76994;BME280;66749;47.406;18.822;2023-09-12T01:55:32;100156.94;;;16.15;78.66
76994;BME280;66749;47.406;18.822;2023-09-12T01:56:04;100158.06;;;16.13;78.43
76994;BME280;66749;47.406;18.822;2023-09-12T01:56:37;100158.19;;;16.11;78.68
76994;BME280;66749;47.406;18.822;2023-09-12T01:57:10;100155.56;;;16.11;78.95
76994;BME280;66749;47.406;18.822;2023-09-12T01:57:42;100162.63;;;16.11;78.73
76994;BME280;66749;47.406;18.822;2023-09-12T01:58:14;100158.28;;;16.09;78.76
76994;BME280;66749;47.406;18.822;2023-09-12T01:58:46;100166.19;;;16.09;78.32
76994;BME280;66749;47.406;18.822;2023-09-12T01:59:19;100157.34;;;16.11;78.59
76994;BME280;66749;47.406;18.822;2023-09-12T01:59:51;100166.09;;;16.11;78.60
76994;BME280;66749;47.406;18.822;2023-09-12T02:00:23;100158.28;;;16.09;78.79
76994;BME280;66749;47.406;18.822;2023-09-12T02:00:55;100158.28;;;16.09;78.71
76994;BME280;66749;47.406;18.822;2023-09-12T02:01:27;100162.84;;;16.07;78.92
76994;BME280;66749;47.406;18.822;2023-09-12T02:01:59;100160.22;;;16.07;78.46
76994;BME280;66749;47.406;18.822;2023-09-12T02:02:31;100162.84;;;16.07;78.45
76994;BME280;66749;47.406;18.822;2023-09-12T02:03:03;100156.75;;;16.07;78.72
76994;BME280;66749;47.406;18.822;2023-09-12T02:03:35;100160.34;;;16.06;78.54
76994;BME280;66749;47.406;18.822;2023-09-12T02:04:07;100163.00;;;16.06;78.95
76994;BME280;66749;47.406;18.822;2023-09-12T02:04:40;100165.63;;;16.06;78.43
76994;BME280;66749;47.406;18.822;2023-09-12T02:05:17;100163.81;;;16.06;78.85
76994;BME280;66749;47.406;18.822;2023-09-12T02:05:50;100168.13;;;16.07;78.72
76994;BME280;66749;47.406;18.822;2023-09-12T02:06:22;100162.16;;;16.05;78.88
76994;BME280;66749;47.406;18.822;2023-09-12T02:06:55;100161.19;;;16.06;79.03
76994;BME280;66749;47.406;18.822;2023-09-12T02:07:32;100165.63;;;16.06;79.28
76994;BME280;66749;47.406;18.822;2023-09-12T02:08:05;100168.13;;;16.07;79.20
76994;BME280;66749;47.406;18.822;2023-09-12T02:08:37;100165.50;;;16.07;79.36
76994;BME280;66749;47.406;18.822;2023-09-12T02:09:08;100162.84;;;16.07;78.71
76994;BME280;66749;47.406;18.822;2023-09-12T02:09:40;100164.78;;;16.05;78.33
76994;BME280;66749;47.406;18.822;2023-09-12T02:10:13;100166.44;;;16.06;78.64
76994;BME280;66749;47.406;18.822;2023-09-12T02:10:45;100167.41;;;16.05;78.85
76994;BME280;66749;47.406;18.822;2023-09-12T02:11:16;100174.47;;;16.05;79.19
76994;BME280;66749;47.406;18.822;2023-09-12T02:11:48;100168.38;;;16.04;78.67
76994;BME280;66749;47.406;18.822;2023-09-12T02:12:20;100166.72;;;16.03;78.73
76994;BME280;66749;47.406;18.822;2023-09-12T02:12:52;100165.88;;;16.03;78.77
76994;BME280;66749;47.406;18.822;2023-09-12T02:13:24;100167.69;;;16.02;78.57
76994;BME280;66749;47.406;18.822;2023-09-12T02:13:56;100166.72;;;16.03;78.95
76994;BME280;66749;47.406;18.822;2023-09-12T02:14:28;100173.66;;;16.04;78.93
76994;BME280;66749;47.406;18.822;2023-09-12T02:15:00;100159.88;;;16.01;78.91
76994;BME280;66749;47.406;18.822;2023-09-12T02:15:31;100170.56;;;15.99;78.28
76994;BME280;66749;47.406;18.822;2023-09-12T02:16:04;100168.75;;;16.00;79.08
76994;BME280;66749;47.406;18.822;2023-09-12T02:16:37;100171.50;;;15.98;78.72
76994;BME280;66749;47.406;18.822;2023-09-12T02:17:15;100167.22;;;15.97;78.95
76994;BME280;66749;47.406;18.822;2023-09-12T02:17:47;100168.88;;;15.98;78.85
76994;BME280;66749;47.406;18.822;2023-09-12T02:18:22;100168.19;;;15.96;78.97
76994;BME280;66749;47.406;18.822;2023-09-12T02:18:54;100170.81;;;15.96;79.01
76994;BME280;66749;47.406;18.822;2023-09-12T02:19:26;100169.25;;;15.94;79.31
76994;BME280;66749;47.406;18.822;2023-09-12T02:19:58;100168.41;;;15.93;79.22
76994;BME280;66749;47.406;18.822;2023-09-12T02:20:30;100166.75;;;15.92;79.14
76994;BME280;66749;47.406;18.822;2023-09-12T02:21:02;100164.13;;;15.92;79.01
76994;BME280;66749;47.406;18.822;2023-09-12T02:21:34;100173.69;;;15.93;78.98
76994;BME280;66749;47.406;18.822;2023-09-12T02:22:06;100171.03;;;15.93;78.83
76994;BME280;66749;47.406;18.822;2023-09-12T02:22:39;100166.63;;;15.94;79.06
76994;BME280;66749;47.406;18.822;2023-09-12T02:23:10;100171.03;;;15.93;78.52
76994;BME280;66749;47.406;18.822;2023-09-12T02:23:42;100170.34;;;15.91;78.70
76994;BME280;66749;47.406;18.822;2023-09-12T02:24:14;100171.03;;;15.93;78.54
76994;BME280;66749;47.406;18.822;2023-09-12T02:24:47;100172.97;;;15.91;78.54
76994;BME280;66749;47.406;18.822;2023-09-12T02:25:19;100169.38;;;15.92;78.50
76994;BME280;66749;47.406;18.822;2023-09-12T02:25:51;100169.38;;;15.92;78.36
76994;BME280;66749;47.406;18.822;2023-09-12T02:26:23;100171.19;;;15.92;78.58
76994;BME280;66749;47.406;18.822;2023-09-12T02:26:55;100172.28;;;15.89;78.97
76994;BME280;66749;47.406;18.822;2023-09-12T02:27:26;100175.97;;;15.87;79.34
76994;BME280;66749;47.406;18.822;2023-09-12T02:27:58;100168.22;;;15.85;78.91
76994;BME280;66749;47.406;18.822;2023-09-12T02:28:30;100169.03;;;15.86;79.20
76994;BME280;66749;47.406;18.822;2023-09-12T02:29:03;100171.69;;;15.86;79.42
76994;BME280;66749;47.406;18.822;2023-09-12T02:29:39;100167.50;;;15.83;79.46
76994;BME280;66749;47.406;18.822;2023-09-12T02:30:11;100164.03;;;15.82;78.80
76994;BME280;66749;47.406;18.822;2023-09-12T02:30:43;100163.22;;;15.82;79.56
76994;BME280;66749;47.406;18.822;2023-09-12T02:31:15;100168.47;;;15.82;79.10
76994;BME280;66749;47.406;18.822;2023-09-12T02:31:47;100171.94;;;15.82;79.38
76994;BME280;66749;47.406;18.822;2023-09-12T02:32:18;100173.72;;;15.82;79.37
76994;BME280;66749;47.406;18.822;2023-09-12T02:32:51;100175.53;;;15.81;79.32
76994;BME280;66749;47.406;18.822;2023-09-12T02:33:22;100175.66;;;15.80;79.69
76994;BME280;66749;47.406;18.822;2023-09-12T02:33:54;100160.94;;;15.77;79.40
76994;BME280;66749;47.406;18.822;2023-09-12T02:34:26;100165.13;;;15.80;79.43
76994;BME280;66749;47.406;18.822;2023-09-12T02:34:58;100167.16;;;15.76;79.26
76994;BME280;66749;47.406;18.822;2023-09-12T02:35:30;100165.38;;;15.77;78.97
76994;BME280;66749;47.406;18.822;2023-09-12T02:36:02;100168.00;;;15.77;79.02
76994;BME280;66749;47.406;18.822;2023-09-12T02:36:34;100167.03;;;15.78;79.04
76994;BME280;66749;47.406;18.822;2023-09-12T02:37:06;100165.38;;;15.77;79.63
76994;BME280;66749;47.406;18.822;2023-09-12T02:37:38;100161.06;;;15.76;79.27
76994;BME280;66749;47.406;18.822;2023-09-12T02:38:10;100168.97;;;15.76;79.10
76994;BME280;66749;47.406;18.822;2023-09-12T02:38:42;100167.03;;;15.78;79.40
76994;BME280;66749;47.406;18.822;2023-09-12T02:39:14;100164.41;;;15.78;79.58
76994;BME280;66749;47.406;18.822;2023-09-12T02:39:46;100167.03;;;15.78;79.41
76994;BME280;66749;47.406;18.822;2023-09-12T02:40:18;100164.53;;;15.76;79.24
76994;BME280;66749;47.406;18.822;2023-09-12T02:40:50;100168.00;;;15.77;78.96
76994;BME280;66749;47.406;18.822;2023-09-12T02:41:22;100160.25;;;15.75;79.33
76994;BME280;66749;47.406;18.822;2023-09-12T02:41:54;100162.88;;;15.75;79.38
76994;BME280;66749;47.406;18.822;2023-09-12T02:42:26;100167.31;;;15.75;79.68
76994;BME280;66749;47.406;18.822;2023-09-12T02:42:58;100167.31;;;15.75;79.54
76994;BME280;66749;47.406;18.822;2023-09-12T02:43:30;100167.16;;;15.76;79.25
76994;BME280;66749;47.406;18.822;2023-09-12T02:44:02;100173.25;;;15.77;79.23
76994;BME280;66749;47.406;18.822;2023-09-12T02:44:34;100169.22;;;15.73;79.39
76994;BME280;66749;47.406;18.822;2023-09-12T02:45:06;100172.56;;;15.75;79.68
76994;BME280;66749;47.406;18.822;2023-09-12T02:45:38;100169.94;;;15.75;79.54
76994;BME280;66749;47.406;18.822;2023-09-12T02:46:10;100172.56;;;15.75;79.41
76994;BME280;66749;47.406;18.822;2023-09-12T02:46:42;100177.00;;;15.74;79.54
76994;BME280;66749;47.406;18.822;2023-09-12T02:47:15;100173.41;;;15.75;79.58
76994;BME280;66749;47.406;18.822;2023-09-12T02:47:47;100168.25;;;15.74;79.49
76994;BME280;66749;47.406;18.822;2023-09-12T02:48:18;100175.19;;;15.75;79.39
76994;BME280;66749;47.406;18.822;2023-09-12T02:48:50;100170.19;;;15.72;79.41
76994;BME280;66749;47.406;18.822;2023-09-12T02:49:22;100167.56;;;15.72;79.91
76994;BME280;66749;47.406;18.822;2023-09-12T02:49:54;100167.56;;;15.72;79.68
76994;BME280;66749;47.406;18.822;2023-09-12T02:50:26;100168.50;;;15.71;79.98
76994;BME280;66749;47.406;18.822;2023-09-12T02:50:58;100168.25;;;15.74;79.43
76994;BME280;66749;47.406;18.822;2023-09-12T02:51:30;100171.97;;;15.71;79.54
76994;BME280;66749;47.406;18.822;2023-09-12T02:52:02;100172.81;;;15.72;79.70
76994;BME280;66749;47.406;18.822;2023-09-12T02:52:34;100171.84;;;15.73;80.21
76994;BME280;66749;47.406;18.822;2023-09-12T02:53:06;100179.63;;;15.74;80.18
76994;BME280;66749;47.406;18.822;2023-09-12T02:53:38;100170.91;;;15.74;79.51
76994;BME280;66749;47.406;18.822;2023-09-12T02:54:10;100171.84;;;15.73;79.80